createdAt,value
2017-06-17T00:00:25.059Z,54.21
2017-06-17T00:01:35.418Z,53.91
2017-06-17T00:02:45.774Z,53.82
2017-06-17T00:03:56.174Z,53.89
2017-06-17T00:05:05.886Z,53.82
2017-06-17T00:06:15.915Z,53.72
2017-06-17T00:07:26.274Z,53.72
2017-06-17T00:08:36.631Z,53.91
2017-06-17T00:09:47.024Z,53.72
2017-06-17T00:10:57.060Z,53.63
2017-06-17T00:12:07.408Z,53.63
2017-06-17T00:13:17.468Z,53.72
2017-06-17T00:14:27.817Z,53.72
2017-06-17T00:15:37.856Z,53.82
2017-06-17T00:16:48.209Z,53.91
2017-06-17T00:17:58.545Z,53.72
2017-06-17T00:19:08.572Z,53.82
2017-06-17T00:20:18.918Z,53.72
2017-06-17T00:21:29.268Z,54.01
2017-06-17T00:22:39.643Z,53.44
2017-06-17T00:23:50.002Z,53.82
2017-06-17T00:25:00.348Z,53.91
2017-06-17T00:26:10.690Z,53.82
2017-06-17T00:27:21.096Z,53.91
2017-06-17T00:28:31.140Z,53.91
2017-06-17T00:29:41.502Z,54.04
2017-06-17T00:30:51.532Z,53.34
2017-06-17T00:32:01.576Z,53.82
2017-06-17T00:33:11.934Z,53.63
2017-06-17T00:34:21.982Z,53.53
2017-06-17T00:35:32.336Z,53.63
2017-06-17T00:36:42.382Z,53.66
2017-06-17T00:37:52.732Z,53.44
2017-06-17T00:39:03.119Z,53.75
2017-06-17T00:40:13.143Z,53.46
2017-06-17T00:41:23.476Z,53.63
2017-06-17T00:42:33.835Z,53.94
2017-06-17T00:43:44.483Z,53.85
2017-06-17T00:44:54.827Z,53.85
2017-06-17T00:46:05.171Z,53.82
2017-06-17T00:47:15.524Z,53.72
2017-06-17T00:48:25.879Z,53.72
2017-06-17T00:49:36.254Z,53.82
2017-06-17T00:50:45.728Z,53.82
2017-06-17T00:51:55.748Z,53.82
2017-06-17T00:53:05.779Z,54.01
2017-06-17T00:54:16.118Z,53.91
2017-06-17T00:55:26.154Z,53.85
2017-06-17T00:56:36.168Z,53.91
2017-06-17T00:57:46.505Z,54.11
2017-06-17T00:58:56.542Z,53.82
2017-06-17T01:00:06.261Z,53.72
2017-06-17T01:01:16.301Z,53.82
2017-06-17T01:02:26.653Z,53.82
2017-06-17T01:03:37.015Z,53.85
2017-06-17T01:04:47.372Z,53.82
2017-06-17T01:05:57.413Z,53.75
2017-06-17T01:07:07.136Z,53.82
2017-06-17T01:08:17.166Z,53.82
2017-06-17T01:09:27.534Z,53.82
2017-06-17T01:10:37.883Z,53.91
2017-06-17T01:11:47.926Z,53.82
2017-06-17T01:12:57.968Z,53.82
2017-06-17T01:14:08.305Z,53.82
2017-06-17T01:15:18.654Z,53.82
2017-06-17T01:16:28.684Z,53.82
2017-06-17T01:17:39.022Z,53.85
2017-06-17T01:18:49.370Z,53.82
2017-06-17T01:19:59.465Z,53.82
2017-06-17T01:21:09.490Z,54.01
2017-06-17T01:22:19.200Z,53.82
2017-06-17T01:23:29.226Z,53.72
2017-06-17T01:24:39.572Z,53.82
2017-06-17T01:25:49.335Z,53.94
2017-06-17T01:26:59.685Z,53.91
2017-06-17T01:28:09.397Z,53.82
2017-06-17T01:29:19.734Z,53.82
2017-06-17T01:30:30.099Z,53.72
2017-06-17T01:31:40.506Z,53.91
2017-06-17T01:32:50.844Z,53.94
2017-06-17T01:34:01.191Z,54.04
2017-06-17T01:35:11.527Z,54.21
2017-06-17T01:36:21.894Z,54.23
2017-06-17T01:37:32.296Z,53.91
2017-06-17T01:38:42.638Z,53.94
2017-06-17T01:39:52.684Z,54.01
2017-06-17T01:41:02.406Z,53.82
2017-06-17T01:42:12.754Z,53.82
2017-06-17T01:43:23.146Z,53.82
2017-06-17T01:44:33.738Z,53.75
2017-06-17T01:45:43.773Z,53.75
2017-06-17T01:46:54.114Z,53.94
2017-06-17T01:48:04.483Z,53.94
2017-06-17T01:49:14.509Z,53.94
2017-06-17T01:50:24.530Z,54.13
2017-06-17T01:51:34.881Z,54.23
2017-06-17T01:52:45.221Z,54.04
2017-06-17T01:53:55.246Z,54.23
2017-06-17T01:55:05.323Z,54.21
2017-06-17T01:56:15.680Z,54.21
2017-06-17T01:57:25.709Z,54.01
2017-06-17T01:58:36.062Z,54.52
2017-06-17T01:59:46.414Z,54.58
2017-06-17T02:00:56.821Z,54.39
2017-06-17T02:02:06.838Z,54.88
2017-06-17T02:03:16.879Z,54.88
2017-06-17T02:04:26.907Z,54.68
2017-06-17T02:05:36.955Z,54.88
2017-06-17T02:06:47.351Z,54.58
2017-06-17T02:07:57.380Z,54.68
2017-06-17T02:09:07.710Z,54.68
2017-06-17T02:10:18.060Z,54.88
2017-06-17T02:11:27.772Z,54.88
2017-06-17T02:12:38.128Z,54.78
2017-06-17T02:13:48.469Z,54.88
2017-06-17T02:14:58.813Z,54.88
2017-06-17T02:16:09.154Z,54.88
2017-06-17T02:17:19.510Z,54.85
2017-06-17T02:18:29.908Z,54.88
2017-06-17T02:19:40.274Z,54.75
2017-06-17T02:20:50.627Z,54.39
2017-06-17T02:22:00.671Z,54.39
2017-06-17T02:23:11.017Z,54.27
2017-06-17T02:24:21.359Z,54.39
2017-06-17T02:25:31.695Z,54.01
2017-06-17T02:26:41.751Z,54.39
2017-06-17T02:27:52.118Z,54.3
2017-06-17T02:29:01.848Z,54.46
2017-06-17T02:30:12.210Z,54.27
2017-06-17T02:31:21.952Z,54.37
2017-06-17T02:32:31.991Z,54.39
2017-06-17T02:33:42.007Z,54.39
2017-06-17T02:34:52.058Z,54.27
2017-06-17T02:36:02.390Z,54.37
2017-06-17T02:37:12.730Z,54.88
2017-06-17T02:38:23.069Z,54.66
2017-06-17T02:39:33.420Z,54.88
2017-06-17T02:40:43.763Z,54.75
2017-06-17T02:41:54.100Z,54.85
2017-06-17T02:43:04.446Z,54.85
2017-06-17T02:44:14.172Z,54.85
2017-06-17T02:45:24.530Z,54.85
2017-06-17T02:46:34.561Z,54.94
2017-06-17T02:47:44.954Z,54.85
2017-06-17T02:48:55.293Z,54.85
2017-06-17T02:50:05.635Z,54.66
2017-06-17T02:51:15.674Z,54.85
2017-06-17T02:52:26.016Z,54.85
2017-06-17T02:53:36.051Z,54.85
2017-06-17T02:54:46.397Z,54.85
2017-06-17T02:55:56.745Z,54.85
2017-06-17T02:57:07.098Z,54.27
2017-06-17T02:58:17.433Z,54.56
2017-06-17T02:59:27.829Z,54.56
2017-06-17T03:00:37.879Z,54.37
2017-06-17T03:32:49.702Z,51.58
2017-06-17T03:34:00.043Z,52.44
2017-06-17T03:35:09.754Z,52.44
2017-06-17T03:36:19.780Z,52.92
2017-06-17T03:37:29.858Z,53.59
2017-06-17T03:38:39.885Z,53.88
2017-06-17T03:39:50.226Z,54.07
2017-06-17T03:41:00.565Z,54.64
2017-06-17T03:42:10.615Z,54.64
2017-06-17T03:43:20.389Z,54.77
2017-06-17T03:44:30.718Z,54.77
2017-06-17T03:45:41.055Z,54.7
2017-06-17T03:46:51.401Z,54.6
2017-06-17T03:48:01.428Z,54.5
2017-06-17T03:49:11.770Z,54.79
2017-06-17T03:50:21.807Z,54.82
2017-06-17T03:51:32.400Z,54.82
2017-06-17T03:52:42.731Z,54.82
2017-06-17T03:53:53.064Z,54.44
2017-06-17T03:55:03.144Z,54.75
2017-06-17T03:56:13.167Z,54.85
2017-06-17T03:57:23.194Z,54.85
2017-06-17T03:58:33.213Z,54.37
2017-06-17T03:59:43.237Z,54.3
2017-06-17T04:00:53.018Z,54.3
2017-06-17T04:02:03.359Z,54.21
2017-06-17T04:03:13.386Z,54.39
2017-06-17T04:04:23.733Z,54.21
2017-06-17T04:05:33.754Z,54.11
2017-06-17T04:06:44.151Z,54.11
2017-06-17T04:07:54.484Z,54.23
2017-06-17T04:09:04.835Z,54.13
2017-06-17T04:10:15.210Z,54.04
2017-06-17T04:11:26.054Z,54.13
2017-06-17T04:12:36.454Z,54.13
2017-06-17T04:13:46.798Z,54.23
2017-06-17T04:14:56.824Z,54.13
2017-06-17T04:16:07.173Z,54.13
2017-06-17T04:17:16.894Z,54.33
2017-06-17T04:18:27.279Z,54.04
2017-06-17T04:19:37.636Z,53.97
2017-06-17T04:20:47.969Z,53.97
2017-06-17T04:21:57.726Z,53.87
2017-06-17T04:23:08.062Z,53.97
2017-06-17T04:24:18.399Z,53.97
2017-06-17T04:25:28.436Z,53.87
2017-06-17T04:26:38.463Z,53.78
2017-06-17T04:27:48.821Z,54.06
2017-06-17T04:28:59.161Z,53.68
2017-06-17T04:30:09.564Z,54.06
2017-06-17T04:31:19.905Z,53.87
2017-06-17T04:32:30.256Z,53.87
2017-06-17T04:33:40.597Z,54
2017-06-17T04:34:50.952Z,54
2017-06-17T04:36:01.340Z,53.7
2017-06-17T04:37:11.694Z,53.8
2017-06-17T04:38:22.046Z,53.9
2017-06-17T04:39:32.365Z,53.52
2017-06-17T04:40:42.717Z,53.61
2017-06-17T04:41:52.790Z,53.8
2017-06-17T04:43:03.141Z,53.7
2017-06-17T04:44:13.404Z,53.83
2017-06-17T04:45:23.429Z,53.64
2017-06-17T04:46:33.143Z,53.83
2017-06-17T04:47:43.487Z,53.92
2017-06-17T04:48:53.825Z,53.83
2017-06-17T04:50:04.179Z,53.64
2017-06-17T04:51:14.519Z,53.57
2017-06-17T04:52:24.851Z,53.86
2017-06-17T04:53:34.938Z,54.05
2017-06-17T04:54:44.968Z,53.76
2017-06-17T04:55:55.016Z,53.76
2017-06-17T04:57:05.372Z,53.76
2017-06-17T04:58:15.728Z,53.57
2017-06-17T04:59:25.811Z,53.57
2017-06-17T05:00:36.148Z,53.76
2017-06-17T05:01:46.175Z,53.57
2017-06-17T05:02:56.511Z,53.4
2017-06-17T05:04:06.849Z,53.21
2017-06-17T05:05:17.191Z,53.02
2017-06-17T05:06:27.537Z,53.31
2017-06-17T05:07:37.894Z,53.23
2017-06-17T05:08:47.930Z,53.23
2017-06-17T05:09:58.284Z,53.05
2017-06-17T05:11:08.072Z,53.33
2017-06-17T05:12:18.417Z,53.07
2017-06-17T05:13:28.751Z,53.14
2017-06-17T05:14:39.100Z,54.1
2017-06-17T05:15:49.135Z,53.98
2017-06-17T05:16:59.218Z,53.69
2017-06-17T05:18:09.563Z,53.88
2017-06-17T05:19:19.281Z,54.17
2017-06-17T05:20:29.623Z,54.36
2017-06-17T05:21:39.972Z,54.34
2017-06-17T05:22:50.332Z,54.53
2017-06-17T05:24:00.361Z,54.63
2017-06-17T05:25:10.701Z,54.24
2017-06-17T05:26:21.055Z,54.05
2017-06-17T05:27:31.070Z,53.88
2017-06-17T05:28:41.451Z,53.98
2017-06-17T05:29:51.483Z,53.78
2017-06-17T05:31:01.821Z,53.5
2017-06-17T05:32:11.549Z,53.33
2017-06-17T05:33:21.897Z,52.66
2017-06-17T05:34:32.291Z,52.4
2017-06-17T05:35:41.720Z,52.71
2017-06-17T05:36:52.055Z,52.52
2017-06-17T05:38:02.082Z,52.23
2017-06-17T05:39:12.117Z,51.89
2017-06-17T05:40:22.467Z,51.92
2017-06-17T05:41:32.809Z,51.27
2017-06-17T05:42:43.148Z,51.39
2017-06-17T05:43:53.522Z,51.39
2017-06-17T05:45:03.879Z,51.2
2017-06-17T05:46:13.958Z,51.51
2017-06-17T05:47:23.720Z,51.32
2017-06-17T05:48:34.062Z,51.32
2017-06-17T05:49:44.410Z,51.71
2017-06-17T05:50:54.450Z,51.23
2017-06-17T05:52:04.525Z,51.44
2017-06-17T05:53:14.880Z,51.73
2017-06-17T05:54:25.235Z,52.22
2017-06-17T05:55:35.265Z,51.83
2017-06-17T05:56:45.283Z,51.73
2017-06-17T05:57:55.325Z,51.83
2017-06-17T05:59:05.692Z,52.67
2017-06-17T06:00:16.028Z,52.58
2017-06-17T06:01:26.059Z,52.48
2017-06-17T06:02:36.078Z,52.75
2017-06-17T06:03:46.427Z,52.77
2017-06-17T06:04:56.772Z,52
2017-06-17T06:06:07.118Z,52.22
2017-06-17T06:07:17.154Z,51.44
2017-06-17T06:08:27.240Z,51.28
2017-06-17T06:09:37.333Z,51.2
2017-06-17T06:10:47.694Z,51.04
2017-06-17T06:11:57.431Z,50.74
2017-06-17T06:13:07.476Z,50.57
2017-06-17T06:14:17.818Z,50.7
2017-06-17T06:15:28.213Z,50.6
2017-06-17T06:16:38.247Z,50.7
2017-06-17T06:17:47.969Z,51.01
2017-06-17T06:18:58.321Z,50.89
2017-06-17T06:20:08.654Z,50.89
2017-06-17T06:21:19.051Z,51.86
2017-06-17T06:22:29.413Z,51.76
2017-06-17T06:23:39.743Z,52.15
2017-06-17T06:24:49.779Z,51.64
2017-06-17T06:26:00.116Z,52.03
2017-06-17T06:27:09.899Z,51.93
2017-06-17T06:28:19.916Z,51.74
2017-06-17T06:29:30.272Z,52.22
2017-06-17T06:30:40.621Z,52.34
2017-06-17T06:31:50.987Z,52.06
2017-06-17T06:33:01.069Z,52.12
2017-06-17T06:34:11.411Z,52.15
2017-06-17T06:35:21.446Z,51.47
2017-06-17T06:36:31.789Z,51.18
2017-06-17T06:37:42.146Z,50.72
2017-06-17T06:38:52.561Z,51.11
2017-06-17T06:40:02.902Z,50.92
2017-06-17T06:41:13.243Z,51.21
2017-06-17T06:42:23.278Z,50.92
2017-06-17T06:43:33.631Z,50.92
2017-06-17T06:44:43.395Z,51.5
2017-06-17T06:45:53.743Z,51.96
2017-06-17T06:47:04.091Z,52.51
2017-06-17T06:48:14.460Z,52.78
2017-06-17T06:49:24.811Z,52.78
2017-06-17T06:50:35.215Z,52.66
2017-06-17T06:51:45.252Z,52.75
2017-06-17T06:52:55.599Z,52.95
2017-06-17T06:54:05.960Z,51.81
2017-06-17T06:55:16.332Z,52.12
2017-06-17T06:56:26.702Z,51.64
2017-06-17T06:57:37.052Z,51.74
2017-06-17T06:58:47.098Z,51.64
2017-06-17T06:59:57.152Z,51.67
2017-06-17T07:01:07.522Z,51.69
2017-06-17T07:02:17.924Z,51.96
2017-06-17T07:03:28.293Z,51.86
2017-06-17T07:04:38.328Z,52.03
2017-06-17T07:05:48.371Z,52.03
2017-06-17T07:06:58.735Z,51.74
2017-06-17T07:08:08.836Z,52.03
2017-06-17T07:09:19.192Z,52.51
2017-06-17T07:10:29.538Z,52.22
2017-06-17T07:11:39.896Z,52.22
2017-06-17T07:12:49.942Z,51.84
2017-06-17T07:14:00.302Z,51.84
2017-06-17T07:15:10.657Z,52.03
2017-06-17T07:16:21.003Z,52.22
2017-06-17T07:17:30.740Z,52.12
2017-06-17T07:18:40.787Z,52.49
2017-06-17T07:19:51.178Z,53.07
2017-06-17T07:21:01.534Z,52.58
2017-06-17T07:22:11.566Z,52.78
2017-06-17T07:23:21.909Z,52.46
2017-06-17T07:24:32.261Z,52.75
2017-06-17T07:25:42.857Z,52.95
2017-06-17T07:26:53.201Z,52.53
2017-06-17T07:28:03.563Z,52.53
2017-06-17T07:29:13.922Z,53.04
2017-06-17T07:30:24.271Z,52.46
2017-06-17T07:31:34.663Z,52.53
2017-06-17T07:32:45.019Z,52.53
2017-06-17T07:33:55.055Z,52.63
2017-06-17T07:35:05.090Z,52.92
2017-06-17T07:36:15.438Z,52.92
2017-06-17T07:37:25.530Z,52.73
2017-06-17T07:38:35.866Z,52.85
2017-06-17T07:39:46.204Z,52
2017-06-17T07:40:56.554Z,51.9
2017-06-17T07:42:06.585Z,51.93
2017-06-17T07:43:16.304Z,51.93
2017-06-17T07:44:26.651Z,52.22
2017-06-17T07:45:37.022Z,52.22
2017-06-17T07:46:47.361Z,52.8
2017-06-17T07:47:57.711Z,52.68
2017-06-17T07:49:07.812Z,52.78
2017-06-17T07:50:18.194Z,52.87
2017-06-17T07:51:28.592Z,52.22
2017-06-17T07:52:38.948Z,52.22
2017-06-17T07:53:48.985Z,51.57
2017-06-17T07:54:59.310Z,52.28
2017-06-17T07:56:09.357Z,52.28
2017-06-17T07:57:19.711Z,51.59
2017-06-17T07:58:29.736Z,51.67
2017-06-17T07:59:40.080Z,52.15
2017-06-17T08:00:50.161Z,52.71
2017-06-17T08:02:00.513Z,52.78
2017-06-17T08:03:10.552Z,53.53
2017-06-17T08:04:20.941Z,52.75
2017-06-17T08:05:31.337Z,52.95
2017-06-17T08:06:41.740Z,52.75
2017-06-17T08:07:52.093Z,52.36
2017-06-17T08:09:02.432Z,53.04
2017-06-17T08:10:12.789Z,52.95
2017-06-17T08:11:23.149Z,52.36
2017-06-17T08:12:33.518Z,52
2017-06-17T08:13:43.865Z,52.1
2017-06-17T08:14:53.590Z,51.93
2017-06-17T08:16:03.940Z,51.67
2017-06-17T08:17:14.286Z,51.76
2017-06-17T08:18:24.694Z,51.67
2017-06-17T08:19:34.745Z,51.04
2017-06-17T08:20:45.110Z,51.53
2017-06-17T08:21:55.152Z,52.18
2017-06-17T08:23:05.518Z,52.64
2017-06-17T08:24:15.940Z,52.25
2017-06-17T08:25:26.299Z,52.06
2017-06-17T08:26:36.675Z,51.98
2017-06-17T08:27:46.746Z,51.59
2017-06-17T08:28:57.107Z,51.62
2017-06-17T08:30:07.160Z,50.94
2017-06-17T08:31:17.216Z,51.06
2017-06-17T08:32:27.570Z,50.89
2017-06-17T08:33:37.601Z,50.63
2017-06-17T08:34:47.955Z,50.24
2017-06-17T08:35:58.054Z,50.09
2017-06-17T08:37:08.416Z,50.19
2017-06-17T08:38:18.818Z,50.48
2017-06-17T08:39:29.155Z,50.87
2017-06-17T08:40:39.492Z,50.75
2017-06-17T08:41:49.265Z,51.04
2017-06-17T08:42:59.619Z,50.85
2017-06-17T08:44:09.962Z,51.31
2017-06-17T08:45:19.998Z,51.4
2017-06-17T08:46:30.361Z,51.21
2017-06-17T08:47:40.832Z,51.31
2017-06-17T08:48:50.866Z,50.73
2017-06-17T08:50:01.231Z,51.23
2017-06-17T08:51:10.982Z,51.89
2017-06-17T08:52:21.334Z,51.65
2017-06-17T08:53:31.745Z,52.23
2017-06-17T08:54:42.085Z,52.59
2017-06-17T08:55:52.440Z,52.11
2017-06-17T08:57:02.148Z,51.91
2017-06-17T08:58:12.507Z,51.65
2017-06-17T08:59:22.908Z,51.18
2017-06-17T09:00:32.640Z,50.56
2017-06-17T09:01:43.003Z,50.02
2017-06-17T09:02:53.360Z,49.95
2017-06-17T09:04:03.724Z,49.58
2017-06-17T09:05:13.756Z,49.68
2017-06-17T09:06:24.120Z,50.07
2017-06-17T09:07:34.478Z,50.63
2017-06-17T09:08:44.832Z,51.02
2017-06-17T09:09:55.194Z,51.48
2017-06-17T09:11:05.237Z,51.36
2017-06-17T09:12:14.988Z,51.48
2017-06-17T09:13:25.030Z,51.07
2017-06-17T09:14:35.082Z,50.99
2017-06-17T09:15:45.443Z,51.12
2017-06-17T09:16:55.799Z,50.99
2017-06-17T09:18:06.157Z,50.7
2017-06-17T09:19:16.204Z,50.73
2017-06-17T09:20:26.256Z,50.43
2017-06-17T09:21:36.293Z,51.31
2017-06-17T09:22:46.411Z,50.99
2017-06-17T09:23:56.780Z,51.36
2017-06-17T09:25:07.138Z,51.84
2017-06-17T09:26:17.499Z,52.28
2017-06-17T09:27:27.836Z,53.13
2017-06-17T09:28:37.913Z,52.62
2017-06-17T09:29:48.261Z,52.91
2017-06-17T09:30:58.628Z,52.52
2017-06-17T09:32:08.978Z,53
2017-06-17T09:33:19.333Z,52.59
2017-06-17T09:34:29.755Z,52.98
2017-06-17T09:35:40.114Z,52.95
2017-06-17T09:36:50.466Z,52.83
2017-06-17T09:38:00.819Z,52.28
2017-06-17T09:39:10.855Z,51.4
2017-06-17T09:40:21.268Z,50.77
2017-06-17T09:41:31.313Z,50.34
2017-06-17T09:42:41.355Z,50.07
2017-06-17T09:43:51.722Z,50.36
2017-06-17T09:45:02.070Z,50.65
2017-06-17T09:46:12.446Z,50.36
2017-06-17T09:47:22.807Z,50.56
2017-06-17T09:48:33.159Z,49.78
2017-06-17T09:49:43.521Z,49.92
2017-06-17T09:50:53.878Z,49.07
2017-06-17T09:52:04.229Z,49.17
2017-06-17T09:53:14.276Z,49.58
2017-06-17T09:54:24.318Z,49.97
2017-06-17T09:55:34.674Z,50.7
2017-06-17T09:56:45.018Z,51.55
2017-06-17T09:57:55.417Z,51.5
2017-06-17T09:59:05.767Z,51.23
2017-06-17T10:00:15.811Z,51.23
2017-06-17T10:01:26.162Z,50.95
2017-06-17T10:02:36.528Z,51.04
2017-06-17T10:03:46.943Z,51.23
2017-06-17T10:04:57.298Z,51.23
2017-06-17T10:06:07.336Z,51.04
2017-06-17T10:07:17.385Z,51.21
2017-06-17T10:08:27.426Z,51.21
2017-06-17T10:09:37.774Z,51.11
2017-06-17T10:10:47.809Z,50.92
2017-06-17T10:11:58.183Z,50.82
2017-06-17T10:13:08.546Z,50.65
2017-06-17T10:14:18.601Z,50.09
2017-06-17T10:15:29.007Z,49.92
2017-06-17T10:16:39.061Z,50.04
2017-06-17T10:17:48.817Z,49.1
2017-06-17T10:18:59.172Z,48.73
2017-06-17T10:20:09.215Z,48.97
2017-06-17T10:21:19.635Z,49.76
2017-06-17T10:22:29.986Z,49.63
2017-06-17T10:23:40.004Z,49.61
2017-06-17T10:24:49.823Z,50.02
2017-06-17T10:26:00.167Z,49.83
2017-06-17T10:27:10.605Z,49.24
2017-06-17T10:28:20.951Z,49.46
2017-06-17T10:29:31.308Z,49.66
2017-06-17T10:30:41.663Z,50.48
2017-06-17T10:31:51.727Z,51.43
2017-06-17T10:33:02.141Z,51.77
2017-06-17T10:34:11.883Z,52.04
2017-06-17T10:35:21.933Z,51.09
2017-06-17T10:36:32.293Z,51.09
2017-06-17T10:37:42.639Z,50.8
2017-06-17T10:38:52.983Z,50.73
2017-06-17T10:40:03.344Z,50.8
2017-06-17T10:41:13.718Z,50.6
2017-06-17T10:42:24.078Z,51.09
2017-06-17T10:43:34.450Z,51.26
2017-06-17T10:44:44.808Z,51.36
2017-06-17T10:45:55.156Z,50.87
2017-06-17T10:47:05.506Z,51.17
2017-06-17T10:48:15.555Z,50.02
2017-06-17T10:49:25.596Z,49.68
2017-06-17T10:50:35.952Z,49.12
2017-06-17T10:51:46.318Z,48.97
2017-06-17T10:52:56.675Z,49.76
2017-06-17T10:54:07.046Z,49.66
2017-06-17T10:55:17.394Z,50.04
2017-06-17T10:56:27.486Z,50.78
2017-06-17T10:57:37.513Z,51.34
2017-06-17T10:58:47.249Z,51.31
2017-06-17T10:59:57.616Z,52.06
2017-06-17T11:01:07.969Z,51.97
2017-06-17T11:02:18.381Z,51.58
2017-06-17T11:03:28.442Z,51.45
2017-06-17T11:04:38.799Z,50.99
2017-06-17T11:05:48.540Z,50.24
2017-06-17T11:06:58.925Z,50.34
2017-06-17T11:08:09.316Z,50.07
2017-06-17T11:09:19.682Z,50.36
2017-06-17T11:10:30.057Z,50.26
2017-06-17T11:11:40.095Z,50.26
2017-06-17T11:12:50.427Z,49.97
2017-06-17T11:14:00.791Z,50.36
2017-06-17T11:15:11.140Z,50.26
2017-06-17T11:16:21.199Z,50.36
2017-06-17T11:17:31.551Z,50.16
2017-06-17T11:18:41.892Z,49.88
2017-06-17T11:19:51.931Z,49.32
2017-06-17T11:21:02.488Z,49.99
2017-06-17T11:22:12.836Z,49.9
2017-06-17T11:23:23.219Z,49.15
2017-06-17T11:24:33.577Z,48.97
2017-06-17T11:25:43.942Z,48.97
2017-06-17T11:26:54.293Z,49.07
2017-06-17T11:28:04.360Z,48.88
2017-06-17T11:29:14.759Z,49.37
2017-06-17T11:30:24.803Z,49.46
2017-06-17T11:31:34.911Z,49.05
2017-06-17T11:32:45.290Z,48.97
2017-06-17T11:33:55.648Z,49.37
2017-06-17T11:35:06.010Z,48.88
2017-06-17T11:36:16.383Z,48.9
2017-06-17T11:37:26.727Z,48.9
2017-06-17T11:38:36.756Z,48.8
2017-06-17T11:39:47.111Z,48.61
2017-06-17T11:40:57.464Z,49.39
2017-06-17T11:42:07.185Z,50.04
2017-06-17T11:43:17.267Z,50.31
2017-06-17T11:44:26.993Z,50.38
2017-06-17T11:45:37.345Z,50.95
2017-06-17T11:46:47.696Z,50.82
2017-06-17T11:47:57.438Z,51.21
2017-06-17T11:49:07.847Z,51.09
2017-06-17T11:50:18.193Z,51.07
2017-06-17T11:51:28.264Z,51.17
2017-06-17T11:52:38.617Z,51.17
2017-06-17T11:53:48.963Z,50.68
2017-06-17T11:54:59.375Z,50.09
2017-06-17T11:56:09.746Z,50.19
2017-06-17T11:57:20.107Z,50.12
2017-06-17T11:58:30.473Z,49.92
2017-06-17T11:59:40.835Z,49.85
2017-06-17T12:00:50.864Z,48.97
2017-06-17T12:02:00.909Z,48.8
2017-06-17T12:03:10.645Z,48.34
2017-06-17T12:04:21.024Z,48.46
2017-06-17T12:05:31.391Z,48.75
2017-06-17T12:06:41.472Z,48.78
2017-06-17T12:07:51.520Z,49.17
2017-06-17T12:09:01.878Z,49.27
2017-06-17T12:10:11.920Z,49.73
2017-06-17T12:11:22.270Z,50.38
2017-06-17T12:12:32.385Z,51.34
2017-06-17T12:13:42.749Z,51.67
2017-06-17T12:14:52.806Z,52.01
2017-06-17T12:16:03.163Z,52.28
2017-06-17T12:17:13.210Z,52.74
2017-06-17T12:18:23.256Z,52.72
2017-06-17T12:19:32.987Z,52.88
2017-06-17T12:20:43.030Z,52.78
2017-06-17T12:21:52.135Z,53.05
2017-06-17T12:23:02.488Z,52.66
2017-06-17T12:24:12.233Z,52.83
2017-06-17T12:25:22.272Z,52.93
2017-06-17T12:26:32.311Z,52.9
2017-06-17T12:27:42.684Z,52.71
2017-06-17T12:28:53.030Z,52.71
2017-06-17T12:30:03.097Z,52.61
2017-06-17T12:31:13.444Z,52.61
2017-06-17T12:32:23.792Z,52
2017-06-17T12:33:33.849Z,52.22
2017-06-17T12:34:43.601Z,52.03
2017-06-17T12:35:53.690Z,51.84
2017-06-17T12:37:04.040Z,51.84
2017-06-17T12:38:14.399Z,51.84
2017-06-17T12:39:24.766Z,51.64
2017-06-17T12:40:35.134Z,52.03
2017-06-17T12:41:45.540Z,52.06
2017-06-17T12:42:55.913Z,51.86
2017-06-17T12:44:06.255Z,51.76
2017-06-17T12:45:16.283Z,51.47
2017-06-17T12:46:26.693Z,51.31
2017-06-17T12:47:37.054Z,51.33
2017-06-17T12:48:47.086Z,51.14
2017-06-17T12:49:57.447Z,51.04
2017-06-17T12:51:07.188Z,50.96
2017-06-17T12:52:17.237Z,51.16
2017-06-17T12:53:27.364Z,51.06
2017-06-17T12:54:37.738Z,51.16
2017-06-17T12:55:47.476Z,51.26
2017-06-17T12:56:57.828Z,51.93
2017-06-17T12:58:08.192Z,51.55
2017-06-17T12:59:18.282Z,51.65
2017-06-17T13:00:28.633Z,52.2
2017-06-17T13:01:38.985Z,51.72
2017-06-17T13:02:49.343Z,51.91
2017-06-17T13:03:59.702Z,52.2
2017-06-17T13:05:10.067Z,51.62
2017-06-17T13:06:20.414Z,52.2
2017-06-17T13:07:30.763Z,51.53
2017-06-17T13:08:41.127Z,51.81
2017-06-17T13:09:51.469Z,51.53
2017-06-17T13:11:01.873Z,51.91
2017-06-17T13:12:12.231Z,52.01
2017-06-17T13:13:22.596Z,52.2
2017-06-17T13:14:32.947Z,51.91
2017-06-17T13:15:43.298Z,51.72
2017-06-17T13:16:53.649Z,51.79
2017-06-17T13:18:04.000Z,52.08
2017-06-17T13:19:14.053Z,51.98
2017-06-17T13:20:24.104Z,51.5
2017-06-17T13:21:34.477Z,51.59
2017-06-17T13:22:44.835Z,51.89
2017-06-17T13:23:55.177Z,51.89
2017-06-17T13:25:05.533Z,52.47
2017-06-17T13:26:15.893Z,51.53
2017-06-17T13:27:25.935Z,51.91
2017-06-17T13:28:35.725Z,51.23
2017-06-17T13:29:46.079Z,51.06
2017-06-17T13:30:56.425Z,50.96
2017-06-17T13:32:06.781Z,50.77
2017-06-17T13:33:17.125Z,51.06
2017-06-17T13:34:27.224Z,51.26
2017-06-17T13:35:37.263Z,51.26
2017-06-17T13:36:47.613Z,51.35
2017-06-17T13:37:57.962Z,51.35
2017-06-17T13:39:08.005Z,51.45
2017-06-17T13:40:18.419Z,51.06
2017-06-17T13:41:28.770Z,50.87
2017-06-17T13:42:39.119Z,51.16
2017-06-17T13:43:49.474Z,51.18
2017-06-17T13:44:59.510Z,50.99
2017-06-17T13:46:09.925Z,50.89
2017-06-17T13:47:19.967Z,50.99
2017-06-17T13:48:30.362Z,50.89
2017-06-17T13:49:40.728Z,50.8
2017-06-17T13:50:51.092Z,50.89
2017-06-17T13:52:01.508Z,51.11
2017-06-17T13:53:11.233Z,51.11
2017-06-17T13:54:21.273Z,51.01
2017-06-17T13:55:31.716Z,50.92
2017-06-17T13:56:41.771Z,50.82
2017-06-17T13:57:51.625Z,51.11
2017-06-17T13:59:01.641Z,51.31
2017-06-17T14:00:11.408Z,51.18
2017-06-17T14:01:21.756Z,51.28
2017-06-17T14:02:31.810Z,51.67
2017-06-17T14:03:41.865Z,51.18
2017-06-17T14:04:52.212Z,51.21
2017-06-17T14:06:02.572Z,51.09
2017-06-17T14:07:12.637Z,51.09
2017-06-17T14:08:22.991Z,51.09
2017-06-17T14:09:33.418Z,51.38
2017-06-17T14:10:43.470Z,51.28
2017-06-17T14:11:53.825Z,50.8
2017-06-17T14:13:04.203Z,50.89
2017-06-17T14:14:14.567Z,51.01
2017-06-17T14:15:24.968Z,50.82
2017-06-17T14:16:34.999Z,51.11
2017-06-17T14:17:45.374Z,51.21
2017-06-17T14:18:55.736Z,51.21
2017-06-17T14:20:06.068Z,51.11
2017-06-17T14:21:16.406Z,51.11
2017-06-17T14:22:26.168Z,51.11
2017-06-17T14:23:36.516Z,51.11
2017-06-17T14:24:46.558Z,51.11
2017-06-17T14:25:56.927Z,50.73
2017-06-17T14:27:07.331Z,50.73
2017-06-17T14:28:17.680Z,51.01
2017-06-17T14:29:27.703Z,51.01
2017-06-17T14:30:38.080Z,50.43
2017-06-17T14:31:48.419Z,50.73
2017-06-17T14:32:58.508Z,50.63
2017-06-17T14:34:08.847Z,50.34
2017-06-17T14:35:19.195Z,50.73
2017-06-17T14:36:29.558Z,50.92
2017-06-17T14:37:39.589Z,50.65
2017-06-17T14:38:50.015Z,50.56
2017-06-17T14:40:00.363Z,50.56
2017-06-17T14:41:10.732Z,50.75
2017-06-17T14:42:21.087Z,50.85
2017-06-17T14:43:31.121Z,50.65
2017-06-17T14:44:41.473Z,51.14
2017-06-17T14:45:51.879Z,51.11
2017-06-17T14:47:02.248Z,51.11
2017-06-17T14:48:12.298Z,51.5
2017-06-17T14:49:22.678Z,51.7
2017-06-17T14:50:33.049Z,51.67
2017-06-17T14:51:43.386Z,52.35
2017-06-17T14:52:53.726Z,51.75
2017-06-17T14:54:04.087Z,52.01
2017-06-17T14:55:14.447Z,52.4
2017-06-17T14:56:24.491Z,51.98
2017-06-17T14:57:34.514Z,52.44
2017-06-17T14:58:44.873Z,52.93
2017-06-17T14:59:54.919Z,53
2017-06-17T15:01:05.290Z,53
2017-06-17T15:02:15.082Z,52.87
2017-06-17T15:03:25.146Z,52.68
2017-06-17T15:04:35.177Z,52.56
2017-06-17T15:05:45.540Z,52.46
2017-06-17T15:06:55.574Z,52.92
2017-06-17T15:08:05.674Z,53.19
2017-06-17T15:09:16.037Z,52.8
2017-06-17T15:10:25.798Z,52.58
2017-06-17T15:11:35.832Z,52.97
2017-06-17T15:12:46.195Z,52.97
2017-06-17T15:13:56.608Z,52.65
2017-06-17T15:15:07.013Z,52.55
2017-06-17T15:16:17.376Z,52.94
2017-06-17T15:17:27.421Z,52.65
2017-06-17T15:18:37.152Z,52.65
2017-06-17T15:19:47.528Z,52.62
2017-06-17T15:20:57.892Z,52.62
2017-06-17T15:22:08.189Z,52.62
2017-06-17T15:23:18.542Z,52.62
2017-06-17T15:24:28.913Z,52.5
2017-06-17T15:25:39.289Z,52.79
2017-06-17T15:26:49.346Z,52.31
2017-06-17T15:27:59.402Z,52.5
2017-06-17T15:29:09.742Z,52.4
2017-06-17T15:30:20.085Z,52.69
2017-06-17T15:31:30.262Z,52.69
2017-06-17T15:32:40.627Z,52.4
2017-06-17T15:33:50.644Z,52.69
2017-06-17T15:35:00.991Z,52.79
2017-06-17T15:36:11.336Z,52.59
2017-06-17T15:37:21.383Z,52.31
2017-06-17T15:38:31.725Z,52.47